createdAt,value
2022-12-06T05:16:06.923Z,100245.97
2022-12-06T05:18:33.886Z,100251.25
2022-12-06T05:21:07.792Z,100249.38
2022-12-06T05:23:35.452Z,100254.66
2022-12-06T05:26:04.314Z,100257.31
2022-12-06T05:28:31.292Z,100267.66
2022-12-06T05:30:58.090Z,100254.75
2022-12-06T05:33:24.889Z,100259.09
2022-12-06T05:35:52.418Z,100256.47
2022-12-06T05:38:19.927Z,100261.69
2022-12-06T05:40:47.224Z,100260.81
2022-12-06T05:43:14.829Z,100257.34
2022-12-06T05:45:41.928Z,100254.78
2022-12-06T05:48:12.531Z,100257.44
2022-12-06T05:50:39.067Z,100265.25
2022-12-06T05:53:05.582Z,100253.09
2022-12-06T05:55:32.324Z,100262.66
2022-12-06T05:57:58.784Z,100263.50
2022-12-06T06:00:25.332Z,100255.72
2022-12-06T06:02:51.983Z,100255.72
2022-12-06T06:05:18.802Z,100254.88
2022-12-06T06:07:45.545Z,100257.44
2022-12-06T06:10:12.356Z,100252.25
2022-12-06T06:12:39.251Z,100259.19
2022-12-06T06:15:35.748Z,100255.66
2022-12-06T06:18:03.689Z,100247.03
2022-12-06T06:20:30.470Z,100251.38
2022-12-06T06:22:57.101Z,100256.56
2022-12-06T06:25:23.854Z,100258.31
2022-12-06T06:27:50.402Z,100262.66
2022-12-06T06:30:17.516Z,100268.72
2022-12-06T06:32:44.081Z,100260.84
2022-12-06T06:35:10.663Z,100263.47
2022-12-06T06:37:37.293Z,100260.91
2022-12-06T06:40:04.452Z,100266.13
2022-12-06T06:42:30.948Z,100260.91
2022-12-06T06:44:57.514Z,100265.28
2022-12-06T06:47:25.121Z,100258.34
2022-12-06T06:49:51.756Z,100264.41
2022-12-06T06:52:18.307Z,100260.94
2022-12-06T06:54:44.772Z,100276.53
2022-12-06T06:57:17.167Z,100263.53
2022-12-06T06:59:45.317Z,100278.25
2022-12-06T07:02:17.335Z,100276.56
2022-12-06T07:04:44.874Z,100274.84
2022-12-06T07:07:16.485Z,100273.09
2022-12-06T07:09:47.407Z,100275.63
2022-12-06T07:12:14.505Z,100274.78
2022-12-06T07:15:14.271Z,100275.66
2022-12-06T07:17:40.904Z,100278.25
2022-12-06T07:20:08.218Z,100280.91
2022-12-06T07:22:35.732Z,100279.13
2022-12-06T07:25:08.187Z,100276.47
2022-12-06T07:27:53.116Z,100276.50
2022-12-06T07:30:27.207Z,100273.84
2022-12-06T07:32:57.033Z,100279.97
2022-12-06T07:35:32.832Z,100277.41
2022-12-06T07:38:12.820Z,100278.25
2022-12-06T07:41:04.113Z,100284.34
2022-12-06T07:43:50.088Z,100281.63
2022-12-06T07:47:23.840Z,100281.72
2022-12-06T07:49:55.881Z,100277.34
2022-12-06T07:52:22.501Z,100282.56
2022-12-06T07:54:52.656Z,100279.13
2022-12-06T07:57:21.835Z,100291.25
2022-12-06T07:59:48.568Z,100285.19
2022-12-06T08:02:24.070Z,100281.72
2022-12-06T08:04:50.944Z,100280.81
2022-12-06T08:07:17.643Z,100276.50
2022-12-06T08:09:47.568Z,100274.72
2022-12-06T08:12:42.485Z,100279.03
2022-12-06T08:15:13.173Z,100274.78
2022-12-06T08:17:40.989Z,100269.63
2022-12-06T08:20:09.135Z,100277.41
2022-12-06T08:22:35.744Z,100274.84
2022-12-06T08:25:02.269Z,100276.56
2022-12-06T08:27:28.973Z,100273.09
2022-12-06T08:29:55.607Z,100268.72
2022-12-06T08:32:22.184Z,100272.25
2022-12-06T08:39:13.824Z,100263.56
2022-12-06T08:41:55.480Z,100274.84
2022-12-06T08:44:22.754Z,100275.72
2022-12-06T08:47:00.075Z,100272.25
2022-12-06T08:49:28.420Z,100270.50
2022-12-06T08:52:23.073Z,100280.94
2022-12-06T08:54:50.067Z,100274.00
2022-12-06T08:57:16.908Z,100276.59
2022-12-06T09:00:41.673Z,100279.16
2022-12-06T09:03:58.862Z,100280.03
2022-12-06T09:06:27.210Z,100290.47
2022-12-06T09:08:54.393Z,100292.19
2022-12-06T09:15:46.387Z,100288.75
2022-12-06T09:18:15.611Z,100287.00
2022-12-06T09:20:42.695Z,100287.84
2022-12-06T09:23:09.207Z,100293.94
2022-12-06T09:26:27.553Z,100298.28
2022-12-06T09:28:55.852Z,100293.94
2022-12-06T09:31:23.174Z,100290.44
2022-12-06T09:33:50.174Z,100287.81
2022-12-06T09:36:25.679Z,100286.97
2022-12-06T09:38:58.428Z,100288.63
2022-12-06T09:41:49.789Z,100295.63
2022-12-06T09:45:02.913Z,100295.53
2022-12-06T09:47:42.977Z,100294.66
2022-12-06T09:50:34.926Z,100294.63
2022-12-06T09:53:01.399Z,100291.09
2022-12-06T09:55:35.179Z,100291.09
2022-12-06T09:58:17.379Z,100289.28
2022-12-06T10:00:51.822Z,100295.34
2022-12-06T10:03:56.561Z,100296.22
2022-12-06T10:06:29.110Z,100291.16
2022-12-06T10:13:35.253Z,100291.31
2022-12-06T10:16:23.071Z,100290.28
2022-12-06T10:19:06.632Z,100291.00
2022-12-06T10:21:54.792Z,100291.00
2022-12-06T10:24:40.215Z,100289.25
2022-12-06T10:27:29.000Z,100290.06
2022-12-06T10:29:59.086Z,100290.81
2022-12-06T10:33:05.603Z,100281.28
2022-12-06T10:35:44.607Z,100287.25
2022-12-06T10:38:28.296Z,100282.78
2022-12-06T10:45:45.045Z,100279.22
2022-12-06T10:48:57.993Z,100280.13
2022-12-06T10:51:48.714Z,100272.94
2022-12-06T10:54:43.619Z,100268.41
2022-12-06T10:57:34.460Z,100265.25
2022-12-06T11:00:23.768Z,100274.00
2022-12-06T11:03:00.467Z,100277.44
2022-12-06T11:06:09.186Z,100280.88
2022-12-06T11:08:39.759Z,100275.03
2022-12-06T11:11:15.030Z,100274.19
2022-12-06T11:14:04.345Z,100277.38
2022-12-06T11:17:03.995Z,100265.91
2022-12-06T11:19:38.234Z,100266.75
2022-12-06T11:22:20.221Z,100274.38
2022-12-06T11:25:03.384Z,100274.59
2022-12-06T11:27:34.712Z,100271.09
2022-12-06T11:30:19.592Z,100267.38
2022-12-06T11:32:49.844Z,100267.22
2022-12-06T11:38:05.384Z,100261.91
2022-12-06T11:40:43.252Z,100258.41
2022-12-06T11:43:17.230Z,100254.97
2022-12-06T11:45:45.770Z,100259.19
2022-12-06T11:48:18.078Z,100263.97
2022-12-06T11:50:46.899Z,100250.66
2022-12-06T11:53:27.843Z,100256.78
2022-12-06T11:56:03.494Z,100263.81
2022-12-06T11:59:21.233Z,100259.56
2022-12-06T12:01:50.973Z,100256.03
2022-12-06T12:04:41.168Z,100257.59
2022-12-06T12:07:18.615Z,100249.09
2022-12-06T12:09:54.315Z,100250.09
2022-12-06T12:12:24.025Z,100244.66
2022-12-06T12:14:58.628Z,100249.03
2022-12-06T12:17:30.458Z,100244.38
2022-12-06T12:20:08.989Z,100241.19
2022-12-06T12:22:39.453Z,100235.53
2022-12-06T12:25:28.423Z,100242.34
2022-12-06T12:28:00.325Z,100244.16
2022-12-06T12:30:39.019Z,100244.69
2022-12-06T12:33:05.442Z,100243.84
2022-12-06T12:35:38.765Z,100239.16
2022-12-06T12:38:11.445Z,100238.19
2022-12-06T12:40:51.151Z,100244.19
2022-12-06T12:43:22.369Z,100235.53
2022-12-06T12:46:10.857Z,100247.47
2022-12-06T12:48:43.209Z,100252.81
2022-12-06T12:51:33.745Z,100251.09
2022-12-06T12:54:20.205Z,100249.53
2022-12-06T12:56:46.932Z,100246.22
2022-12-06T12:59:16.965Z,100244.44
2022-12-06T13:01:55.338Z,100246.06
2022-12-06T13:04:43.866Z,100247.84
2022-12-06T13:07:10.398Z,100246.09
2022-12-06T13:10:02.648Z,100247.13
2022-12-06T13:12:35.082Z,100241.75
2022-12-06T13:15:14.659Z,100247.81
2022-12-06T13:17:44.034Z,100245.53
2022-12-06T13:20:33.237Z,100242.56
2022-12-06T13:23:13.773Z,100240.31
2022-12-06T13:26:16.577Z,100238.69
2022-12-06T13:28:49.295Z,100237.81
2022-12-06T13:31:25.624Z,100235.19
2022-12-06T13:33:56.587Z,100231.72
2022-12-06T13:37:24.562Z,100235.13
2022-12-06T13:40:35.526Z,100236.78
2022-12-06T13:43:24.139Z,100237.88
2022-12-06T13:46:15.234Z,100242.19
2022-12-06T13:48:51.883Z,100238.66
2022-12-06T13:51:30.623Z,100243.09
2022-12-06T13:54:30.184Z,100243.97
2022-12-06T13:56:58.919Z,100244.91
2022-12-06T13:59:25.530Z,100239.63
2022-12-06T14:01:54.794Z,100239.66
2022-12-06T14:04:24.474Z,100243.88
2022-12-06T14:06:53.185Z,100240.53
2022-12-06T14:09:20.413Z,100238.06
2022-12-06T14:11:47.504Z,100241.41
2022-12-06T14:14:20.452Z,100238.84
2022-12-06T14:16:51.717Z,100243.19
2022-12-06T14:19:27.543Z,100239.59
2022-12-06T14:21:54.000Z,100239.06
2022-12-06T14:24:33.236Z,100239.91
2022-12-06T14:27:13.269Z,100248.56
2022-12-06T14:29:41.431Z,100242.44
2022-12-06T14:32:08.443Z,100250.34
2022-12-06T14:34:36.631Z,100246.88
2022-12-06T14:37:23.268Z,100248.50
2022-12-06T14:39:53.362Z,100252.91
2022-12-06T14:42:38.614Z,100241.69
2022-12-06T14:45:12.782Z,100252.09
2022-12-06T14:47:39.512Z,100251.22
2022-12-06T14:50:29.196Z,100253.91
2022-12-06T14:52:58.673Z,100248.69
2022-12-06T14:55:27.343Z,100247.72
2022-12-06T14:57:58.737Z,100251.22
2022-12-06T15:00:38.247Z,100242.63
2022-12-06T15:03:07.772Z,100242.47
2022-12-06T15:05:38.466Z,100245.09
2022-12-06T15:08:38.737Z,100242.59
2022-12-06T15:11:42.048Z,100237.44
2022-12-06T15:14:16.178Z,100232.22
2022-12-06T15:16:43.853Z,100233.91
2022-12-06T15:19:14.198Z,100232.94
2022-12-06T15:21:42.958Z,100238.22
2022-12-06T15:24:18.128Z,100228.56
2022-12-06T15:26:44.700Z,100228.63
2022-12-06T15:29:11.178Z,100225.19
2022-12-06T15:31:39.324Z,100224.38
2022-12-06T15:34:21.291Z,100225.25
2022-12-06T15:36:48.126Z,100229.66
2022-12-06T15:39:14.774Z,100223.53
2022-12-06T15:41:42.251Z,100233.13
2022-12-06T15:44:14.717Z,100228.72
2022-12-06T15:46:42.055Z,100232.25
2022-12-06T15:49:12.864Z,100234.84
2022-12-06T15:51:45.310Z,100241.78
2022-12-06T15:54:18.908Z,100232.25
2022-12-06T15:56:45.834Z,100238.34
2022-12-06T15:59:13.182Z,100235.72
2022-12-06T16:01:45.410Z,100240.06
2022-12-06T16:04:15.761Z,100240.06
2022-12-06T16:06:48.535Z,100238.31
2022-12-06T16:09:16.616Z,100240.09
2022-12-06T16:11:43.617Z,100240.94
2022-12-06T16:14:10.631Z,100235.75
2022-12-06T16:16:43.091Z,100231.41
2022-12-06T16:19:10.145Z,100232.22
2022-12-06T16:21:54.314Z,100230.50
2022-12-06T16:24:21.029Z,100225.25
2022-12-06T16:26:48.028Z,100238.34
2022-12-06T16:29:23.392Z,100231.38
2022-12-06T16:31:51.415Z,100239.16
2022-12-06T16:34:18.328Z,100236.59
2022-12-06T16:37:03.126Z,100235.72
2022-12-06T16:39:33.433Z,100241.78
2022-12-06T16:42:01.152Z,100232.25
2022-12-06T16:44:57.554Z,100233.97
2022-12-06T16:49:49.724Z,100244.41
2022-12-06T16:52:16.982Z,100237.44
2022-12-06T16:54:44.778Z,100233.13
2022-12-06T16:57:12.721Z,100228.75
2022-12-06T16:59:40.277Z,100220.06
2022-12-06T17:02:22.014Z,100232.25
2022-12-06T17:04:48.591Z,100220.97
2022-12-06T17:07:15.389Z,100226.19
2022-12-06T17:09:42.149Z,100228.78
2022-12-06T17:12:13.127Z,100225.31
2022-12-06T17:14:40.026Z,100219.22
2022-12-06T17:17:06.614Z,100227.06
2022-12-06T17:19:33.648Z,100240.97
2022-12-06T17:22:09.324Z,100233.13
2022-12-06T17:24:40.756Z,100240.97
2022-12-06T17:27:12.398Z,100240.97
2022-12-06T17:29:39.078Z,100240.06
2022-12-06T17:32:09.685Z,100238.31
2022-12-06T17:34:36.420Z,100240.06
2022-12-06T17:37:03.228Z,100243.53
2022-12-06T17:39:29.962Z,100238.31
2022-12-06T17:42:15.235Z,100242.69
2022-12-06T17:44:41.719Z,100240.06
2022-12-06T17:47:08.298Z,100240.94
2022-12-06T17:49:36.140Z,100242.69
2022-12-06T17:52:02.741Z,100246.13
2022-12-06T17:54:29.337Z,100243.53
2022-12-06T17:56:58.053Z,100238.31
2022-12-06T17:59:30.335Z,100240.06
2022-12-06T18:02:16.950Z,100247.00
2022-12-06T18:04:44.718Z,100238.34
2022-12-06T18:07:14.901Z,100235.75
2022-12-06T18:09:42.256Z,100237.47
2022-12-06T18:12:10.039Z,100234.88
2022-12-06T18:14:36.747Z,100247.94
2022-12-06T18:17:06.630Z,100238.34
2022-12-06T18:19:39.023Z,100242.72
2022-12-06T18:22:05.483Z,100238.34
2022-12-06T18:24:35.896Z,100234.03
2022-12-06T18:27:04.388Z,100235.78
2022-12-06T18:29:30.936Z,100243.59
2022-12-06T18:31:57.683Z,100240.97
2022-12-06T18:34:26.271Z,100246.22
2022-12-06T18:36:52.757Z,100241.84
2022-12-06T18:39:25.178Z,100246.22
2022-12-06T18:41:53.758Z,100243.56
2022-12-06T18:44:20.448Z,100238.38
2022-12-06T18:46:47.013Z,100255.75
2022-12-06T18:49:14.042Z,100260.06
2022-12-06T18:51:41.460Z,100250.53
2022-12-06T18:54:08.651Z,100237.47
2022-12-06T18:56:48.357Z,100236.66
2022-12-06T18:59:15.020Z,100237.50
2022-12-06T19:01:41.738Z,100238.38
2022-12-06T19:04:09.983Z,100247.91
2022-12-06T19:06:38.626Z,100242.69
2022-12-06T19:09:11.774Z,100247.03
2022-12-06T19:11:41.290Z,100244.47
2022-12-06T19:14:09.259Z,100242.69
2022-12-06T19:16:39.750Z,100249.69
2022-12-06T19:19:16.132Z,100247.94
2022-12-06T19:21:44.752Z,100256.63
2022-12-06T19:24:12.558Z,100251.41
2022-12-06T19:26:39.329Z,100244.44
2022-12-06T19:29:05.983Z,100247.06
2022-12-06T19:31:35.084Z,100248.81
2022-12-06T19:34:09.764Z,100260.06
2022-12-06T19:36:43.410Z,100254.88
2022-12-06T19:39:14.553Z,100256.59
2022-12-06T19:42:00.766Z,100266.16
2022-12-06T19:44:32.562Z,100259.22
2022-12-06T19:46:59.244Z,100256.59
2022-12-06T19:49:27.403Z,100262.66
2022-12-06T19:51:55.125Z,100267.91
2022-12-06T19:54:32.693Z,100272.22
2022-12-06T19:57:05.043Z,100277.44
2022-12-06T19:59:35.134Z,100273.09
2022-12-06T20:02:08.113Z,100277.44
2022-12-06T20:04:44.272Z,100280.94
2022-12-06T20:07:34.401Z,100284.41
2022-12-06T20:10:18.487Z,100287.84
2022-12-06T20:16:28.909Z,100278.31
2022-12-06T20:19:02.509Z,100273.97
2022-12-06T20:21:29.543Z,100268.78
2022-12-06T20:23:58.662Z,100266.16
2022-12-06T20:26:26.844Z,100265.25
2022-12-06T20:28:53.448Z,100265.28
2022-12-06T20:31:25.562Z,100257.44
2022-12-06T20:33:56.240Z,100252.22
2022-12-06T20:36:23.671Z,100247.06
2022-12-06T20:38:52.374Z,100245.31
2022-12-06T20:41:22.030Z,100248.78
2022-12-06T20:43:52.352Z,100256.59
2022-12-06T20:46:23.084Z,100250.53
2022-12-06T20:48:50.071Z,100254.00
2022-12-06T20:51:20.048Z,100254.88
2022-12-06T20:53:48.073Z,100254.88
2022-12-06T20:56:20.336Z,100250.50
2022-12-06T20:58:50.343Z,100247.03
2022-12-06T21:01:20.140Z,100247.06
2022-12-06T21:03:48.251Z,100246.19
2022-12-06T21:06:15.707Z,100240.13
2022-12-06T21:08:42.598Z,100238.41
2022-12-06T21:11:25.488Z,100237.50
2022-12-06T21:13:56.934Z,100231.44
2022-12-06T21:16:29.837Z,100233.16
2022-12-06T21:18:59.343Z,100230.56
2022-12-06T21:21:32.630Z,100228.84
2022-12-06T21:24:01.097Z,100223.63
2022-12-06T21:26:29.510Z,100229.72
2022-12-06T21:28:56.717Z,100228.84
2022-12-06T21:31:31.164Z,100227.97
2022-12-06T21:33:58.242Z,100232.31
2022-12-06T21:36:25.528Z,100234.91
2022-12-06T21:38:53.069Z,100238.41
2022-12-06T21:41:21.484Z,100239.25
2022-12-06T21:43:48.862Z,100228.84
2022-12-06T21:46:21.226Z,100234.91
2022-12-06T21:48:52.359Z,100230.56
2022-12-06T21:51:19.837Z,100224.47
2022-12-06T21:53:46.619Z,100234.03
2022-12-06T21:56:24.516Z,100230.53
2022-12-06T21:58:51.575Z,100232.31
2022-12-06T22:01:24.155Z,100233.19
2022-12-06T22:03:52.902Z,100232.25
2022-12-06T22:06:20.653Z,100232.22
2022-12-06T22:08:48.874Z,100230.44
2022-12-06T22:11:18.446Z,100239.13
2022-12-06T22:13:46.315Z,100242.59
2022-12-06T22:16:14.104Z,100238.31
2022-12-06T22:18:45.291Z,100242.63
2022-12-06T22:21:17.920Z,100234.00
2022-12-06T22:23:45.496Z,100234.81
2022-12-06T22:26:15.408Z,100239.19
2022-12-06T22:28:44.716Z,100240.97
2022-12-06T22:31:20.218Z,100233.13
2022-12-06T22:33:48.238Z,100234.03
2022-12-06T22:36:16.273Z,100234.03
2022-12-06T22:38:43.069Z,100224.50
2022-12-06T22:41:10.065Z,100229.69
2022-12-06T22:43:37.444Z,100230.59
2022-12-06T22:46:10.216Z,100230.56
2022-12-06T22:48:37.736Z,100240.97
2022-12-06T22:51:14.848Z,100237.50
2022-12-06T22:53:43.770Z,100238.38
2022-12-06T22:56:11.391Z,100242.69
2022-12-06T22:58:38.201Z,100240.06
